Time;durP1;ratioP1;P1;durP2;ratioP2;P2;SDS_P1;SDS_P2;PMS_P1;PMS_P2;Temp;Humidity;BMP_temperature;BMP_pressure;BME280_temperature;BME280_humidity;BME280_pressure;Samples;Min_cycle;Max_cycle;Signal;HPM_P1;HPM_P2
2023/05/13 00:01:15;;;;;;;2.95;1.90;;;10.50;99.90;;;;;;5033771;28;20032;-83
2023/05/13 00:03:41;;;;;;;2.78;1.60;;;10.50;99.90;;;;;;5062704;28;20056;-84
2023/05/13 00:06:07;;;;;;;2.33;1.45;;;10.50;99.90;;;;;;5063799;28;20020;-84
2023/05/13 00:08:33;;;;;;;3.72;1.58;;;10.40;99.90;;;;;;5062071;28;20108;-84
2023/05/13 00:10:59;;;;;;;3.17;1.38;;;10.40;99.90;;;;;;5067117;28;20052;-84
2023/05/13 00:13:25;;;;;;;2.50;1.35;;;10.30;99.90;;;;;;5055624;28;20028;-84
2023/05/13 00:15:51;;;;;;;2.20;1.40;;;10.30;99.90;;;;;;5054017;28;20028;-84
2023/05/13 00:18:17;;;;;;;3.53;1.63;;;10.30;99.90;;;;;;5074821;23;20071;-75
2023/05/13 00:20:43;;;;;;;2.03;1.40;;;10.20;99.90;;;;;;5113979;28;20059;-76
2023/05/13 00:23:08;;;;;;;2.22;1.40;;;10.20;99.90;;;;;;5113860;28;20024;-76
2023/05/13 00:25:34;;;;;;;2.42;1.52;;;10.20;99.90;;;;;;5095496;28;20388;-76
2023/05/13 00:28:00;;;;;;;1.88;1.30;;;10.20;99.90;;;;;;5089345;28;20032;-76
2023/05/13 00:30:26;;;;;;;2.30;1.23;;;10.20;99.90;;;;;;5059130;28;20057;-75
2023/05/13 00:32:51;;;;;;;2.65;1.35;;;10.20;99.90;;;;;;5114202;28;20114;-76
2023/05/13 00:35:17;;;;;;;2.47;1.60;;;10.30;99.90;;;;;;5113473;28;20055;-75
2023/05/13 00:37:43;;;;;;;3.70;1.50;;;10.30;99.90;;;;;;5113562;28;20060;-76
2023/05/13 00:40:29;;;;;;;3.63;1.48;;;10.30;99.90;;;;;;5096052;28;20536;-76
2023/05/13 00:42:55;;;;;;;4.82;1.60;;;10.20;99.90;;;;;;5099426;28;20145;-76
2023/05/13 00:45:21;;;;;;;2.63;1.58;;;10.20;99.90;;;;;;5099587;28;20156;-76
2023/05/13 00:47:47;;;;;;;2.42;1.50;;;10.10;99.90;;;;;;5117468;28;20098;-76
2023/05/13 00:50:13;;;;;;;3.00;1.60;;;10.10;99.90;;;;;;5117196;28;20391;-75
2023/05/13 00:52:40;;;;;;;2.42;1.30;;;10.10;99.90;;;;;;5117496;28;20047;-76
2023/05/13 00:55:08;;;;;;;1.90;1.23;;;10.10;99.90;;;;;;5099303;28;20118;-76
2023/05/13 00:57:37;;;;;;;2.33;1.27;;;10.10;99.90;;;;;;5117535;28;20035;-75
2023/05/13 01:00:04;;;;;;;2.47;1.38;;;10.10;99.90;;;;;;5117272;28;20050;-76
2023/05/13 01:02:56;;;;;;;2.20;1.27;;;10.20;99.90;;;;;;5117335;28;20030;-76
2023/05/13 01:06:09;;;;;;;2.05;1.27;;;10.20;99.90;;;;;;5116951;28;20016;-75
2023/05/13 01:09:04;;;;;;;2.95;1.40;;;10.20;99.90;;;;;;5080565;28;20475;-76
2023/05/13 01:11:37;;;;;;;2.42;1.35;;;10.20;99.90;;;;;;5088031;28;20040;-76
2023/05/13 01:14:12;;;;;;;2.38;1.48;;;10.10;99.90;;;;;;5117202;28;20076;-75
2023/05/13 01:16:57;;;;;;;3.53;1.38;;;10.10;99.90;;;;;;5116975;28;20030;-76
2023/05/13 01:19:41;;;;;;;2.90;1.40;;;10.00;99.90;;;;;;5075085;22;20445;-84
2023/05/13 01:22:07;;;;;;;2.63;1.10;;;10.00;99.90;;;;;;5077643;28;20063;-84
2023/05/13 01:24:32;;;;;;;2.78;1.13;;;10.00;99.90;;;;;;5078369;28;20047;-84
2023/05/13 01:26:59;;;;;;;1.77;1.10;;;9.90;99.90;;;;;;5041697;28;20468;-84
2023/05/13 01:29:25;;;;;;;2.88;1.00;;;9.90;99.90;;;;;;5059988;28;20450;-84
2023/05/13 01:31:52;;;;;;;1.95;1.10;;;9.90;99.90;;;;;;5039028;28;20025;-84
2023/05/13 01:34:21;;;;;;;2.53;1.20;;;9.90;99.90;;;;;;5040291;28;20033;-84
2023/05/13 01:36:47;;;;;;;2.10;1.30;;;9.90;99.90;;;;;;5038579;28;20021;-84
2023/05/13 01:39:14;;;;;;;3.85;1.30;;;9.90;99.90;;;;;;5020671;28;20064;-84
2023/05/13 01:41:40;;;;;;;1.67;1.00;;;9.90;99.90;;;;;;5037041;28;20037;-85
2023/05/13 01:44:05;;;;;;;2.17;1.00;;;9.80;99.90;;;;;;5035287;28;20032;-85
2023/05/13 01:46:31;;;;;;;2.67;1.10;;;9.80;99.90;;;;;;5038116;28;20025;-85
2023/05/13 01:48:57;;;;;;;2.17;1.20;;;9.80;99.90;;;;;;5039154;28;20063;-85
2023/05/13 01:51:22;;;;;;;2.15;1.30;;;9.80;99.90;;;;;;5022018;28;20025;-85
2023/05/13 01:53:48;;;;;;;2.40;1.05;;;9.80;99.90;;;;;;5039112;28;20033;-85
2023/05/13 01:56:14;;;;;;;1.50;0.95;;;9.80;99.90;;;;;;5034298;28;20041;-85
2023/05/13 01:58:40;;;;;;;3.90;1.52;;;9.80;99.90;;;;;;5055236;28;20029;-85
2023/05/13 02:01:05;;;;;;;2.20;0.98;;;9.80;99.90;;;;;;5037914;28;20469;-85
2023/05/13 02:03:31;;;;;;;1.92;1.02;;;9.80;99.90;;;;;;5038274;28;20438;-86
2023/05/13 02:05:57;;;;;;;2.58;0.82;;;9.80;99.90;;;;;;5021605;28;20369;-86
2023/05/13 02:08:24;;;;;;;0.95;0.70;;;9.80;99.90;;;;;;5021333;28;20103;-86
2023/05/13 02:10:59;;;;;;;2.10;0.80;;;9.80;99.90;;;;;;5047936;28;20074;-86
2023/05/13 02:13:25;;;;;;;1.73;0.80;;;9.80;99.90;;;;;;5041021;28;20029;-86
2023/05/13 02:15:52;;;;;;;1.48;0.70;;;9.80;99.90;;;;;;5057534;28;20476;-86
2023/05/13 02:18:18;;;;;;;1.10;0.60;;;9.80;99.90;;;;;;5057163;28;20094;-86
2023/05/13 02:20:44;;;;;;;1.75;0.70;;;9.80;99.90;;;;;;5045478;28;20029;-86
2023/05/13 02:23:10;;;;;;;1.27;0.73;;;9.70;99.90;;;;;;5055322;28;20534;-86
2023/05/13 02:25:36;;;;;;;1.38;0.90;;;9.70;99.90;;;;;;5021431;28;20033;-86
2023/05/13 02:28:01;;;;;;;2.22;0.80;;;9.70;99.90;;;;;;5020653;28;20116;-86
2023/05/13 02:30:27;;;;;;;1.38;0.80;;;9.60;99.90;;;;;;5024359;28;20404;-86
2023/05/13 02:32:53;;;;;;;1.83;0.70;;;9.70;99.90;;;;;;5023209;28;20466;-86
2023/05/13 02:35:19;;;;;;;3.13;0.70;;;9.60;99.90;;;;;;5018121;28;20072;-86
2023/05/13 02:37:46;;;;;;;1.35;0.60;;;9.60;99.90;;;;;;5017389;28;20442;-86
2023/05/13 02:40:12;;;;;;;1.30;0.60;;;9.60;99.90;;;;;;5012044;28;20492;-85
2023/05/13 02:42:37;;;;;;;1.17;0.60;;;9.50;99.90;;;;;;5017153;28;20508;-86
2023/05/13 02:45:03;;;;;;;2.60;0.70;;;9.60;99.90;;;;;;5000808;28;20029;-86
2023/05/13 02:47:29;;;;;;;1.08;0.55;;;9.50;99.90;;;;;;5033687;28;20026;-86
2023/05/13 02:49:55;;;;;;;1.75;0.60;;;9.50;99.90;;;;;;5034827;28;20025;-86
2023/05/13 02:52:22;;;;;;;2.65;0.70;;;9.50;99.90;;;;;;5018595;28;20041;-86
2023/05/13 02:54:47;;;;;;;2.45;1.20;;;9.50;99.90;;;;;;5036740;28;20485;-86
2023/05/13 02:57:13;;;;;;;2.22;0.70;;;9.60;99.90;;;;;;5049630;28;20037;-86
2023/05/13 02:59:39;;;;;;;1.42;0.82;;;9.60;99.90;;;;;;5053375;28;20091;-86
2023/05/13 03:02:04;;;;;;;2.80;0.85;;;9.60;99.90;;;;;;5043481;28;20035;-86
2023/05/13 03:04:30;;;;;;;1.50;0.75;;;9.60;99.90;;;;;;5054814;28;20043;-86
2023/05/13 03:06:56;;;;;;;1.00;0.60;;;9.60;99.90;;;;;;5039829;28;20116;-86
2023/05/13 03:09:21;;;;;;;2.28;0.60;;;9.70;99.90;;;;;;5039247;28;20029;-86
2023/05/13 03:11:47;;;;;;;1.27;0.75;;;9.70;99.90;;;;;;5035902;28;20078;-86
2023/05/13 03:14:13;;;;;;;1.80;0.95;;;9.70;99.90;;;;;;5056295;28;20056;-86
2023/05/13 03:16:39;;;;;;;2.33;0.90;;;9.70;99.90;;;;;;5006346;28;20431;-87
2023/05/13 03:19:05;;;;;;;1.13;0.70;;;9.70;99.90;;;;;;5029655;28;20037;-87
2023/05/13 03:21:30;;;;;;;1.80;0.80;;;9.70;99.90;;;;;;5013442;28;20054;-87
2023/05/13 03:23:56;;;;;;;1.58;0.80;;;9.80;99.90;;;;;;5022055;28;20428;-84
2023/05/13 03:26:22;;;;;;;3.42;0.80;;;9.80;99.90;;;;;;5021912;28;20033;-85
2023/05/13 03:28:48;;;;;;;2.13;0.70;;;9.80;99.90;;;;;;5019064;28;20030;-83
2023/05/13 03:31:14;;;;;;;1.92;0.88;;;9.80;99.90;;;;;;5044438;28;20074;-83
2023/05/13 03:33:39;;;;;;;1.50;0.70;;;9.80;99.90;;;;;;5055371;28;20512;-83
2023/05/13 03:36:05;;;;;;;1.17;0.55;;;9.80;99.90;;;;;;5036600;28;20035;-83
2023/05/13 03:38:31;;;;;;;1.20;0.70;;;9.70;99.90;;;;;;5003139;28;20025;-84
2023/05/13 03:40:57;;;;;;;1.45;0.70;;;9.70;99.90;;;;;;5018125;28;20124;-84
2023/05/13 03:43:23;;;;;;;1.05;0.60;;;9.70;99.90;;;;;;5008955;28;20067;-84
2023/05/13 03:45:50;;;;;;;0.88;0.60;;;9.60;99.90;;;;;;5048614;28;20021;-84
2023/05/13 03:48:16;;;;;;;0.95;0.50;;;9.60;99.90;;;;;;5038034;28;20021;-84
2023/05/13 03:50:42;;;;;;;1.00;0.70;;;9.50;99.90;;;;;;5049782;28;20021;-84
2023/05/13 03:53:10;;;;;;;1.55;0.60;;;9.50;99.90;;;;;;5037340;28;20393;-84
2023/05/13 03:55:35;;;;;;;0.40;0.40;;;9.50;99.90;;;;;;5054156;28;20029;-84
2023/05/13 03:58:12;;;;;;;1.10;0.60;;;9.50;99.90;;;;;;5021152;28;20025;-84
2023/05/13 04:00:37;;;;;;;0.70;0.50;;;9.50;99.90;;;;;;5054863;28;20021;-83
2023/05/13 04:03:03;;;;;;;0.85;0.50;;;9.50;99.90;;;;;;5053913;28;20035;-84
2023/05/13 04:05:29;;;;;;;1.10;0.60;;;9.50;99.90;;;;;;5054464;28;20051;-84
2023/05/13 04:07:55;;;;;;;2.05;0.90;;;9.50;99.90;;;;;;5020717;28;20065;-84
2023/05/13 04:10:20;;;;;;;3.05;1.42;;;9.50;99.90;;;;;;5037935;28;20460;-84
2023/05/13 04:12:46;;;;;;;2.30;1.80;;;9.50;99.90;;;;;;5021144;28;20029;-84
2023/05/13 04:15:11;;;;;;;3.10;2.53;;;9.50;99.90;;;;;;5020652;28;20036;-84
2023/05/13 04:17:37;;;;;;;5.30;2.63;;;9.50;99.90;;;;;;5020759;28;20124;-83
2023/05/13 04:20:03;;;;;;;2.75;1.85;;;9.40;99.90;;;;;;5038633;28;20124;-83
2023/05/13 04:22:29;;;;;;;2.25;1.73;;;9.40;99.90;;;;;;5038248;28;20029;-84
2023/05/13 04:24:57;;;;;;;3.03;1.98;;;9.40;99.90;;;;;;5038014;28;20078;-83
2023/05/13 04:27:23;;;;;;;3.90;1.80;;;9.40;99.90;;;;;;5022245;28;20029;-83
2023/05/13 04:29:49;;;;;;;10.18;6.07;;;9.50;99.90;;;;;;5038404;28;20124;-83
2023/05/13 04:32:20;;;;;;;10.27;6.85;;;9.50;99.90;;;;;;5026068;28;20485;-83
2023/05/13 04:34:49;;;;;;;10.02;6.57;;;9.50;99.90;;;;;;5018541;28;20033;-83
2023/05/13 04:37:15;;;;;;;10.23;6.50;;;9.50;99.90;;;;;;5010572;28;20059;-83
2023/05/13 04:39:45;;;;;;;7.30;4.55;;;9.50;99.90;;;;;;5055226;28;20042;-83
2023/05/13 04:42:11;;;;;;;6.13;3.15;;;9.50;99.90;;;;;;5073231;28;20023;-83
2023/05/13 04:44:37;;;;;;;4.22;2.60;;;9.60;99.90;;;;;;5038406;28;20052;-84
2023/05/13 04:47:02;;;;;;;3.58;2.00;;;9.60;99.90;;;;;;5033030;28;20510;-83
2023/05/13 04:49:28;;;;;;;2.63;1.55;;;9.60;99.90;;;;;;5022242;28;20128;-83
2023/05/13 04:51:54;;;;;;;2.15;1.23;;;9.60;99.90;;;;;;5025642;28;20428;-84
2023/05/13 04:54:19;;;;;;;2.67;1.48;;;9.70;99.90;;;;;;5017101;28;20481;-83
2023/05/13 04:56:45;;;;;;;2.47;1.20;;;9.70;99.90;;;;;;5029836;28;20555;-83
2023/05/13 04:59:11;;;;;;;1.63;0.85;;;9.70;99.90;;;;;;5022230;28;20121;-83
2023/05/13 05:01:37;;;;;;;1.48;0.70;;;9.70;99.90;;;;;;5012355;28;20020;-83
2023/05/13 05:04:04;;;;;;;1.58;1.10;;;9.70;99.90;;;;;;5039010;28;20033;-83
2023/05/13 05:06:30;;;;;;;4.57;1.80;;;9.70;99.90;;;;;;5025711;28;20029;-83
2023/05/13 05:08:55;;;;;;;2.10;1.42;;;9.70;99.90;;;;;;5002565;28;20400;-83
2023/05/13 05:11:21;;;;;;;3.22;1.85;;;9.70;99.90;;;;;;5028601;28;20025;-84
2023/05/13 05:13:47;;;;;;;3.50;1.85;;;9.60;99.90;;;;;;5010799;28;20093;-84
2023/05/13 05:16:12;;;;;;;3.70;1.77;;;9.70;99.90;;;;;;5030339;28;20025;-83
2023/05/13 05:18:40;;;;;;;2.70;1.50;;;9.60;99.90;;;;;;5007112;28;20033;-83
2023/05/13 05:21:06;;;;;;;2.60;1.45;;;9.60;99.90;;;;;;5014573;28;20115;-83
2023/05/13 05:23:31;;;;;;;5.43;1.70;;;9.60;99.90;;;;;;5038369;28;20040;-83
2023/05/13 05:25:59;;;;;;;2.70;1.85;;;9.70;99.90;;;;;;4999854;28;20025;-83
2023/05/13 05:28:24;;;;;;;2.13;1.40;;;9.70;99.90;;;;;;5018408;28;20057;-83
2023/05/13 05:30:50;;;;;;;2.33;1.27;;;9.70;99.90;;;;;;5007314;28;20511;-83
2023/05/13 05:33:17;;;;;;;1.85;1.10;;;9.80;99.90;;;;;;5026259;28;20032;-83
2023/05/13 05:35:43;;;;;;;2.58;1.30;;;9.80;99.90;;;;;;5048841;28;20036;-83
2023/05/13 05:38:09;;;;;;;2.25;1.20;;;9.80;99.90;;;;;;5022752;28;20403;-83
2023/05/13 05:40:42;;;;;;;1.42;0.70;;;9.90;99.90;;;;;;5038291;28;20029;-84
2023/05/13 05:43:08;;;;;;;2.20;1.08;;;9.90;99.90;;;;;;5038748;28;20070;-83
2023/05/13 05:45:38;;;;;;;2.33;1.05;;;10.00;99.90;;;;;;5039134;28;20025;-83
2023/05/13 05:48:05;;;;;;;2.20;1.30;;;10.10;99.90;;;;;;5038551;28;20025;-83
2023/05/13 05:50:31;;;;;;;2.30;1.27;;;10.10;99.90;;;;;;5039229;28;20163;-83
2023/05/13 05:52:58;;;;;;;10.02;1.92;;;10.20;99.90;;;;;;5022592;28;20075;-83
2023/05/13 05:55:24;;;;;;;2.92;1.45;;;10.30;99.90;;;;;;5023257;28;20036;-83
2023/05/13 05:57:50;;;;;;;2.40;1.48;;;10.40;99.90;;;;;;5039355;28;20033;-84
2023/05/13 06:00:16;;;;;;;2.50;1.33;;;10.40;99.90;;;;;;5038527;28;20392;-83
2023/05/13 06:02:41;;;;;;;2.33;1.30;;;10.40;99.90;;;;;;5038714;28;20029;-83
2023/05/13 06:05:10;;;;;;;2.15;1.25;;;10.50;99.90;;;;;;5006319;28;20031;-83
2023/05/13 06:07:36;;;;;;;5.15;1.42;;;10.50;99.90;;;;;;5038782;28;20018;-83
2023/05/13 06:10:02;;;;;;;2.90;1.42;;;10.50;99.90;;;;;;5056686;28;20051;-83
2023/05/13 06:12:28;;;;;;;2.05;1.30;;;10.50;99.90;;;;;;5018856;28;20397;-83
2023/05/13 06:14:54;;;;;;;2.40;1.40;;;10.60;99.90;;;;;;5035263;28;20477;-82
2023/05/13 06:17:20;;;;;;;2.45;1.40;;;10.60;99.90;;;;;;5002487;28;20112;-83
2023/05/13 06:19:46;;;;;;;2.92;1.65;;;10.70;99.90;;;;;;5035308;28;20124;-83
2023/05/13 06:22:11;;;;;;;2.30;1.42;;;10.70;99.90;;;;;;5003399;28;20025;-83
2023/05/13 06:24:38;;;;;;;2.30;1.42;;;10.80;99.90;;;;;;5035356;28;20021;-82
2023/05/13 06:27:04;;;;;;;2.72;1.77;;;10.90;99.90;;;;;;5018838;28;20032;-82
2023/05/13 06:29:30;;;;;;;2.40;1.45;;;11.00;99.90;;;;;;5018923;28;20026;-82
2023/05/13 06:31:56;;;;;;;2.42;1.48;;;11.00;99.90;;;;;;5005835;28;20574;-82
2023/05/13 06:34:21;;;;;;;2.28;1.38;;;11.10;99.90;;;;;;5057165;28;20048;-83
2023/05/13 06:36:47;;;;;;;3.40;1.92;;;11.10;99.90;;;;;;5022775;28;20040;-83
2023/05/13 06:39:13;;;;;;;2.60;1.30;;;11.20;99.90;;;;;;5038732;28;20083;-83
2023/05/13 06:41:39;;;;;;;3.88;1.80;;;11.20;99.90;;;;;;5038759;28;20021;-83
2023/05/13 06:44:06;;;;;;;2.80;1.70;;;11.30;99.90;;;;;;5056468;28;20059;-82
2023/05/13 06:46:32;;;;;;;3.50;1.88;;;11.30;99.90;;;;;;5038542;28;20108;-82
2023/05/13 06:48:58;;;;;;;2.97;2.03;;;11.40;99.90;;;;;;5056564;28;20021;-82
2023/05/13 06:51:27;;;;;;;3.47;1.95;;;11.40;99.90;;;;;;5038764;28;20055;-83
2023/05/13 06:53:54;;;;;;;3.58;2.17;;;11.50;99.90;;;;;;5038551;28;20017;-82
2023/05/13 06:56:23;;;;;;;3.70;2.30;;;11.60;99.90;;;;;;5022084;28;20485;-82
2023/05/13 06:58:49;;;;;;;3.45;2.40;;;11.60;99.90;;;;;;5037698;28;20029;-82
2023/05/13 07:01:16;;;;;;;3.88;2.63;;;11.80;99.90;;;;;;5022774;28;20033;-83
2023/05/13 07:03:42;;;;;;;3.33;2.10;;;12.00;99.90;;;;;;5038760;28;20035;-82
2023/05/13 07:06:07;;;;;;;4.13;2.35;;;12.10;99.90;;;;;;5038213;28;20071;-82
2023/05/13 07:08:33;;;;;;;4.22;2.35;;;12.20;99.90;;;;;;5038713;28;20028;-82
2023/05/13 07:10:59;;;;;;;3.50;2.10;;;12.30;99.90;;;;;;5022359;28;20025;-82
2023/05/13 07:13:25;;;;;;;2.65;2.05;;;12.50;99.90;;;;;;5039052;28;20036;-82
2023/05/13 07:15:51;;;;;;;3.25;2.00;;;12.70;99.90;;;;;;5038402;28;20511;-82
2023/05/13 07:18:17;;;;;;;2.53;1.90;;;12.90;99.90;;;;;;5021191;28;20037;-82
2023/05/13 07:20:43;;;;;;;3.15;1.83;;;13.10;99.90;;;;;;5021340;28;20050;-82
2023/05/13 07:23:08;;;;;;;2.92;1.70;;;13.20;99.90;;;;;;5038509;28;20029;-82
2023/05/13 07:25:34;;;;;;;3.35;1.40;;;13.20;99.90;;;;;;5021406;28;20033;-82
2023/05/13 07:28:00;;;;;;;2.47;1.30;;;13.20;99.90;;;;;;5037736;28;20059;-83
2023/05/13 07:30:25;;;;;;;2.95;1.20;;;13.20;99.90;;;;;;5021227;28;20032;-82
2023/05/13 07:32:51;;;;;;;2.58;1.55;;;13.30;99.90;;;;;;5062947;28;20614;-83
2023/05/13 07:35:17;;;;;;;2.67;1.40;;;13.30;99.90;;;;;;5042117;28;20123;-83
2023/05/13 07:37:46;;;;;;;2.90;1.00;;;13.30;99.90;;;;;;5053381;28;20057;-83
2023/05/13 07:40:12;;;;;;;1.83;1.40;;;13.40;99.90;;;;;;5020349;28;20029;-83
2023/05/13 07:42:39;;;;;;;2.03;1.30;;;13.40;99.90;;;;;;5049142;28;20112;-82
2023/05/13 07:45:06;;;;;;;2.17;1.20;;;13.50;99.90;;;;;;5046946;28;20031;-82
2023/05/13 07:47:32;;;;;;;1.85;1.20;;;13.60;99.90;;;;;;5040213;28;20028;-83
2023/05/13 07:49:58;;;;;;;1.75;1.17;;;13.70;99.90;;;;;;5039163;28;20377;-83
2023/05/13 07:52:24;;;;;;;1.27;0.90;;;13.80;99.90;;;;;;5072650;28;20032;-83
2023/05/13 07:54:49;;;;;;;2.90;1.30;;;14.00;99.90;;;;;;5069553;28;20108;-83
2023/05/13 07:57:16;;;;;;;2.15;1.10;;;14.10;99.90;;;;;;5004027;28;20415;-83
2023/05/13 07:59:42;;;;;;;1.98;1.30;;;14.20;99.90;;;;;;5021030;28;20555;-82
2023/05/13 08:02:07;;;;;;;1.77;1.20;;;14.30;99.90;;;;;;5024422;28;20060;-82
2023/05/13 08:04:33;;;;;;;2.00;1.00;;;14.40;99.90;;;;;;5066278;28;20035;-82
2023/05/13 08:07:00;;;;;;;1.80;1.25;;;14.50;99.90;;;;;;5054969;28;20100;-82
2023/05/13 08:09:26;;;;;;;2.33;1.52;;;14.50;99.90;;;;;;5037137;28;20029;-82
2023/05/13 08:11:53;;;;;;;2.17;1.35;;;14.50;99.90;;;;;;5020248;28;20499;-82
2023/05/13 08:14:19;;;;;;;2.78;1.33;;;14.50;99.90;;;;;;5054592;28;20145;-82
2023/05/13 08:16:44;;;;;;;2.00;1.20;;;14.40;99.90;;;;;;5020235;28;20065;-82
2023/05/13 08:19:10;;;;;;;3.45;1.80;;;14.40;99.90;;;;;;5036621;28;20178;-82
2023/05/13 08:21:36;;;;;;;2.35;1.40;;;14.50;99.90;;;;;;5020301;28;20025;-82
2023/05/13 08:24:01;;;;;;;2.47;1.60;;;14.50;99.90;;;;;;5020321;28;20094;-82
2023/05/13 08:26:27;;;;;;;2.45;1.60;;;14.50;99.90;;;;;;5036696;28;20427;-82
2023/05/13 08:28:53;;;;;;;2.20;1.40;;;14.50;99.90;;;;;;5020027;28;20021;-82
2023/05/13 08:31:19;;;;;;;2.28;1.25;;;14.60;99.90;;;;;;5054640;28;20025;-82
2023/05/13 08:33:46;;;;;;;2.38;1.42;;;14.60;99.90;;;;;;5054314;28;20033;-82
2023/05/13 08:36:12;;;;;;;2.53;1.30;;;14.50;99.90;;;;;;5054358;28;20081;-82
2023/05/13 08:38:37;;;;;;;2.03;1.00;;;14.70;99.90;;;;;;5054075;28;20056;-82
2023/05/13 08:41:05;;;;;;;1.65;1.27;;;15.00;99.90;;;;;;5036689;28;20082;-79
2023/05/13 08:43:32;;;;;;;1.63;1.00;;;15.40;99.90;;;;;;5054591;28;20017;-79
2023/05/13 08:46:02;;;;;;;1.83;1.00;;;15.60;99.90;;;;;;5054175;28;20052;-79
2023/05/13 08:48:30;;;;;;;1.52;0.77;;;15.80;99.90;;;;;;5054221;28;20017;-79
2023/05/13 08:50:56;;;;;;;1.40;0.80;;;15.90;99.90;;;;;;5054451;28;20439;-79
2023/05/13 08:53:25;;;;;;;1.50;0.90;;;16.00;99.90;;;;;;5036459;28;20028;-79
2023/05/13 08:55:52;;;;;;;0.88;0.55;;;16.10;99.90;;;;;;5036325;28;20053;-79
2023/05/13 08:58:17;;;;;;;0.60;0.40;;;16.20;99.90;;;;;;5020145;28;20029;-79
2023/05/13 09:00:43;;;;;;;1.30;0.50;;;16.40;99.90;;;;;;5036892;28;20040;-79
2023/05/13 09:03:11;;;;;;;1.10;0.60;;;16.60;99.90;;;;;;5057901;28;20079;-79
2023/05/13 09:05:37;;;;;;;0.90;0.50;;;16.60;99.90;;;;;;5040282;28;20033;-79
2023/05/13 09:08:07;;;;;;;1.13;0.40;;;16.70;99.90;;;;;;5023543;28;20492;-79
2023/05/13 09:10:33;;;;;;;1.13;0.60;;;16.60;99.90;;;;;;5058322;28;20027;-79
2023/05/13 09:13:00;;;;;;;0.80;0.30;;;16.30;99.90;;;;;;5023485;28;20033;-79
2023/05/13 09:15:27;;;;;;;0.95;0.40;;;16.20;99.90;;;;;;5040350;28;20036;-78
2023/05/13 09:17:57;;;;;;;0.80;0.40;;;16.00;99.90;;;;;;5058817;28;20025;-79
2023/05/13 09:20:24;;;;;;;0.75;0.40;;;16.20;99.90;;;;;;5040666;28;20025;-81
2023/05/13 09:22:51;;;;;;;0.80;0.40;;;16.40;99.90;;;;;;5057717;28;20071;-81
2023/05/13 09:25:19;;;;;;;0.90;0.38;;;16.50;99.90;;;;;;5039877;28;20112;-81
2023/05/13 09:27:51;;;;;;;0.82;0.40;;;16.30;99.90;;;;;;5057443;28;20468;-81
2023/05/13 09:30:18;;;;;;;1.20;0.35;;;16.20;99.90;;;;;;5057758;28;20469;-81
2023/05/13 09:32:44;;;;;;;0.52;0.35;;;16.10;99.90;;;;;;5057429;28;20064;-81
2023/05/13 09:35:17;;;;;;;1.60;0.57;;;16.00;99.90;;;;;;5039627;28;20060;-78
2023/05/13 09:37:45;;;;;;;1.10;0.55;;;15.90;99.90;;;;;;5058152;28;20477;-79
2023/05/13 09:40:15;;;;;;;0.52;0.30;;;15.90;99.90;;;;;;5058479;28;20025;-81
2023/05/13 09:42:45;;;;;;;0.70;0.32;;;15.90;99.90;;;;;;5057393;28;20017;-81
2023/05/13 09:45:15;;;;;;;1.90;0.35;;;16.00;99.90;;;;;;5040020;28;20033;-82
2023/05/13 09:47:42;;;;;;;1.30;0.32;;;16.10;99.90;;;;;;5039189;28;20387;-83
2023/05/13 09:50:13;;;;;;;0.50;0.32;;;16.30;99.90;;;;;;5039221;28;20404;-82
2023/05/13 09:52:39;;;;;;;0.90;0.40;;;16.40;99.90;;;;;;5039164;28;20025;-83
2023/05/13 09:55:08;;;;;;;0.32;0.20;;;16.60;99.90;;;;;;5040191;28;20078;-82
2023/05/13 09:57:34;;;;;;;0.57;0.30;;;16.80;99.90;;;;;;5056893;28;20029;-83
2023/05/13 10:00:05;;;;;;;0.65;0.30;;;17.00;99.90;;;;;;5039088;28;20389;-82
2023/05/13 10:02:32;;;;;;;1.00;0.40;;;17.20;99.90;;;;;;5038208;28;20028;-83
2023/05/13 10:04:58;;;;;;;0.22;0.20;;;17.40;99.90;;;;;;5038987;28;20032;-82
2023/05/13 10:07:24;;;;;;;2.05;0.28;;;17.60;99.90;;;;;;5039231;28;20029;-83
2023/05/13 10:09:53;;;;;;;1.17;0.30;;;17.50;99.90;;;;;;5056689;28;20037;-82
2023/05/13 10:12:21;;;;;;;0.77;0.47;;;17.40;99.90;;;;;;5038619;28;20032;-82
2023/05/13 10:14:50;;;;;;;0.57;0.28;;;17.30;99.90;;;;;;5055889;28;20029;-82
2023/05/13 10:17:18;;;;;;;0.60;0.30;;;17.20;99.90;;;;;;5056290;28;20029;-82
2023/05/13 10:19:44;;;;;;;0.45;0.30;;;17.30;99.90;;;;;;5038350;28;20033;-82
2023/05/13 10:22:14;;;;;;;0.50;0.30;;;17.20;99.90;;;;;;5056340;28;20029;-82
2023/05/13 10:24:41;;;;;;;0.55;0.30;;;17.10;99.90;;;;;;5057395;28;20049;-83
2023/05/13 10:27:10;;;;;;;0.77;0.40;;;16.90;99.90;;;;;;5038636;28;20029;-82
2023/05/13 10:29:37;;;;;;;0.30;0.20;;;16.80;99.90;;;;;;5055981;28;20017;-82
2023/05/13 10:32:04;;;;;;;0.32;0.20;;;16.60;99.90;;;;;;5056545;28;20021;-82
2023/05/13 10:34:32;;;;;;;0.70;0.40;;;16.60;99.90;;;;;;5021631;28;20036;-82
2023/05/13 10:37:17;;;;;;;1.17;0.30;;;16.60;99.90;;;;;;5038235;28;20033;-82
2023/05/13 10:39:55;;;;;;;0.60;0.35;;;16.60;99.90;;;;;;5037362;28;20021;-82
2023/05/13 10:42:32;;;;;;;1.05;0.40;;;16.60;99.90;;;;;;5037234;28;20028;-82
2023/05/13 10:44:58;;;;;;;1.48;0.40;;;16.70;99.90;;;;;;5055397;28;20097;-82
2023/05/13 10:47:25;;;;;;;1.17;0.60;;;16.60;99.90;;;;;;5054792;28;20069;-82
2023/05/13 10:49:51;;;;;;;1.90;0.50;;;16.60;99.90;;;;;;5037156;28;20029;-81
2023/05/13 10:52:17;;;;;;;2.33;0.50;;;16.70;99.90;;;;;;5037179;28;20055;-82
2023/05/13 10:54:55;;;;;;;1.17;0.40;;;16.70;99.90;;;;;;5037367;28;20029;-82
2023/05/13 10:57:28;;;;;;;0.95;0.30;;;16.60;99.90;;;;;;5054977;28;20055;-82
2023/05/13 11:00:17;;;;;;;0.93;0.55;;;16.40;99.90;;;;;;5055001;28;20075;-82
2023/05/13 11:02:43;;;;;;;0.68;0.40;;;16.20;99.90;;;;;;5037746;28;20025;-82
2023/05/13 11:05:17;;;;;;;0.38;0.38;;;16.00;99.90;;;;;;5054864;28;20021;-82
2023/05/13 11:07:55;;;;;;;0.32;0.30;;;15.90;99.90;;;;;;5054805;28;20024;-82
2023/05/13 11:10:31;;;;;;;0.80;0.40;;;15.80;99.90;;;;;;5037113;28;20039;-82
2023/05/13 11:13:12;;;;;;;0.88;0.50;;;15.80;99.90;;;;;;5037151;28;20033;-82
2023/05/13 11:15:47;;;;;;;0.73;0.40;;;15.80;99.90;;;;;;5054942;28;20035;-81
2023/05/13 11:18:13;;;;;;;0.73;0.55;;;15.70;99.90;;;;;;5037452;28;20059;-82
2023/05/13 11:20:39;;;;;;;0.70;0.40;;;15.70;99.90;;;;;;5037102;28;20510;-82
2023/05/13 11:23:07;;;;;;;1.67;0.50;;;15.80;99.90;;;;;;5037204;28;20049;-80
2023/05/13 11:25:33;;;;;;;8.75;1.00;;;15.80;99.90;;;;;;5054715;28;20029;-80
2023/05/13 11:27:59;;;;;;;1.23;0.43;;;15.90;99.90;;;;;;5036833;28;20033;-80
2023/05/13 11:30:26;;;;;;;2.58;0.55;;;16.00;99.90;;;;;;5020320;28;20488;-78
2023/05/13 11:32:55;;;;;;;1.00;0.40;;;16.00;99.90;;;;;;5054816;28;20429;-80
2023/05/13 11:35:25;;;;;;;0.88;0.50;;;16.10;99.90;;;;;;5020633;28;20025;-80
2023/05/13 11:37:51;;;;;;;0.60;0.40;;;16.10;99.90;;;;;;5038189;28;20021;-80
2023/05/13 11:40:22;;;;;;;1.85;0.38;;;16.10;99.90;;;;;;5037566;28;20107;-80
2023/05/13 11:42:48;;;;;;;2.45;0.98;;;16.00;99.90;;;;;;5037401;28;20387;-80
2023/05/13 11:45:16;;;;;;;1.27;0.57;;;16.00;99.90;;;;;;5054690;28;20071;-80
2023/05/13 11:47:42;;;;;;;1.92;1.10;;;16.00;99.90;;;;;;5054545;28;20032;-80
2023/05/13 11:50:22;;;;;;;2.80;1.15;;;15.90;99.90;;;;;;5054918;28;20021;-80
2023/05/13 11:52:52;;;;;;;1.83;1.02;;;15.80;99.90;;;;;;5055011;28;20029;-80
2023/05/13 11:55:44;;;;;;;1.13;0.67;;;15.80;99.90;;;;;;5054737;28;20033;-80
2023/05/13 11:58:14;;;;;;;0.73;0.50;;;15.70;99.90;;;;;;5049958;28;20045;-80
2023/05/13 12:00:39;;;;;;;1.40;0.60;;;15.70;99.90;;;;;;5036651;28;20036;-80
2023/05/13 12:03:10;;;;;;;0.90;0.60;;;15.70;99.90;;;;;;5036771;28;20025;-81
2023/05/13 12:05:37;;;;;;;2.15;0.90;;;15.80;99.90;;;;;;5037606;28;20029;-80
2023/05/13 12:08:03;;;;;;;1.83;0.80;;;15.90;99.90;;;;;;5053485;28;20055;-80
2023/05/13 12:10:28;;;;;;;2.65;0.60;;;15.90;99.90;;;;;;5035221;28;20676;-80
2023/05/13 12:12:54;;;;;;;2.17;0.77;;;16.00;99.90;;;;;;5035843;28;20021;-80
2023/05/13 12:15:20;;;;;;;1.42;0.60;;;16.20;99.90;;;;;;5035937;28;20033;-80
2023/05/13 12:17:48;;;;;;;1.20;0.68;;;16.40;99.90;;;;;;5036046;28;20037;-79
2023/05/13 12:20:18;;;;;;;1.25;0.57;;;16.50;99.90;;;;;;5035404;28;20505;-79
2023/05/13 12:22:43;;;;;;;1.05;0.60;;;16.50;99.90;;;;;;5053044;28;20032;-79
2023/05/13 12:25:34;;;;;;;0.90;0.60;;;16.40;99.90;;;;;;5036155;28;20025;-80
2023/05/13 12:28:15;;;;;;;0.80;0.50;;;16.20;99.90;;;;;;5054669;28;20028;-80
2023/05/13 12:31:02;;;;;;;0.65;0.50;;;16.30;99.90;;;;;;5054305;28;20098;-80
2023/05/13 12:33:42;;;;;;;1.30;0.80;;;16.50;99.90;;;;;;5035719;28;20029;-81
2023/05/13 12:36:22;;;;;;;1.77;0.80;;;16.60;99.90;;;;;;5055022;28;20036;-80
2023/05/13 12:38:59;;;;;;;0.90;0.65;;;16.60;99.90;;;;;;5053296;28;20934;-79
2023/05/13 12:41:27;;;;;;;1.05;0.60;;;16.70;99.90;;;;;;5030353;28;20040;-79
2023/05/13 12:44:12;;;;;;;1.10;0.60;;;16.30;99.90;;;;;;5029268;28;20033;-80
2023/05/13 12:46:38;;;;;;;0.60;0.50;;;16.30;99.90;;;;;;5038473;28;20420;-80
2023/05/13 12:49:05;;;;;;;2.08;0.60;;;16.10;99.90;;;;;;5038478;28;20021;-80
2023/05/13 12:51:34;;;;;;;1.20;0.40;;;15.90;99.90;;;;;;5020548;28;20036;-80
2023/05/13 12:54:00;;;;;;;0.85;0.60;;;15.80;99.90;;;;;;5021148;28;20032;-80